Staples, Minnesota
Current Conditions -  °F | °C
As of 4:54 PM on Saturday 25 Oct 2014 (Local Time) from KSAZ Reporting Station
Clear Clear  
Wind Chill: 55°   Ceiling: Unl
Heat Index: 55°   Visibility: 10mi
Dew Point: 25°   Wind: 13mph
Humidity: 31%   Direction: 290°WNW
Pressure: 30.05"   Gusts: 18mph
Location:  46.36°N, 94.79°W
Report Text: KSAZ 252154Z AUTO 29011G16KT 10SM CLR 13/M04 A3005 RMK AO2
Loading
Personal Weather Stations






























Interactive Weather Map
Tropical Storm Tracking
New forecast layout! Learn more

10-Day Weather Forecast

Advertisements
Track Severe Weather on mobile